sensor_id;sensor_type;location;lat;lon;timestamp;P1;durP1;ratioP1;P2;durP2;ratioP2
26824;SDS011;14402;48.178;11.566;2022-12-18T00:00:17;35.2;;;28.6;;
26824;SDS011;14402;48.178;11.566;2022-12-18T00:00:47;35.2;;;28.6;;
26824;SDS011;14402;48.178;11.566;2022-12-18T00:01:18;34.8;;;28.0;;
26824;SDS011;14402;48.178;11.566;2022-12-18T00:01:47;34.5;;;27.3;;
26824;SDS011;14402;48.178;11.566;2022-12-18T00:02:17;34.5;;;27.3;;
26824;SDS011;14402;48.178;11.566;2022-12-18T00:02:47;34.5;;;27.3;;
26824;SDS011;14402;48.178;11.566;2022-12-18T00:03:17;35.3;;;27.3;;
26824;SDS011;14402;48.178;11.566;2022-12-18T00:03:48;36.2;;;27.3;;
26824;SDS011;14402;48.178;11.566;2022-12-18T00:04:19;36.2;;;27.3;;
26824;SDS011;14402;48.178;11.566;2022-12-18T00:04:48;36.2;;;27.3;;
26824;SDS011;14402;48.178;11.566;2022-12-18T00:05:18;36.0;;;27.8;;
26824;SDS011;14402;48.178;11.566;2022-12-18T00:05:48;35.7;;;28.2;;
26824;SDS011;14402;48.178;11.566;2022-12-18T00:06:18;35.7;;;28.2;;
26824;SDS011;14402;48.178;11.566;2022-12-18T00:06:48;35.7;;;28.2;;
26824;SDS011;14402;48.178;11.566;2022-12-18T00:07:18;34.5;;;27.5;;
26824;SDS011;14402;48.178;11.566;2022-12-18T00:07:48;33.2;;;26.7;;
26824;SDS011;14402;48.178;11.566;2022-12-18T00:08:19;33.2;;;26.7;;
26824;SDS011;14402;48.178;11.566;2022-12-18T00:08:48;33.2;;;26.7;;
26824;SDS011;14402;48.178;11.566;2022-12-18T00:09:19;34.6;;;27.5;;
26824;SDS011;14402;48.178;11.566;2022-12-18T00:09:49;35.9;;;28.2;;
26824;SDS011;14402;48.178;11.566;2022-12-18T00:10:19;35.9;;;28.2;;
26824;SDS011;14402;48.178;11.566;2022-12-18T00:10:49;35.9;;;28.2;;
26824;SDS011;14402;48.178;11.566;2022-12-18T00:11:20;35.3;;;28.0;;
26824;SDS011;14402;48.178;11.566;2022-12-18T00:11:49;34.7;;;27.9;;
26824;SDS011;14402;48.178;11.566;2022-12-18T00:12:19;34.7;;;27.9;;
26824;SDS011;14402;48.178;11.566;2022-12-18T00:12:49;34.7;;;27.9;;
26824;SDS011;14402;48.178;11.566;2022-12-18T00:13:19;35.1;;;28.2;;
26824;SDS011;14402;48.178;11.566;2022-12-18T00:13:50;35.5;;;28.5;;
26824;SDS011;14402;48.178;11.566;2022-12-18T00:14:19;35.5;;;28.5;;
26824;SDS011;14402;48.178;11.566;2022-12-18T00:14:49;35.5;;;28.5;;
26824;SDS011;14402;48.178;11.566;2022-12-18T00:15:20;36.2;;;28.5;;
26824;SDS011;14402;48.178;11.566;2022-12-18T00:15:50;36.9;;;28.6;;
26824;SDS011;14402;48.178;11.566;2022-12-18T00:16:21;36.9;;;28.6;;
26824;SDS011;14402;48.178;11.566;2022-12-18T00:16:50;36.9;;;28.6;;
26824;SDS011;14402;48.178;11.566;2022-12-18T00:17:21;36.5;;;28.8;;
26824;SDS011;14402;48.178;11.566;2022-12-18T00:17:50;36.1;;;29.0;;
26824;SDS011;14402;48.178;11.566;2022-12-18T00:18:20;36.1;;;29.0;;
26824;SDS011;14402;48.178;11.566;2022-12-18T00:18:52;36.1;;;29.0;;
26824;SDS011;14402;48.178;11.566;2022-12-18T00:19:20;36.9;;;29.0;;
26824;SDS011;14402;48.178;11.566;2022-12-18T00:19:50;37.7;;;29.1;;
26824;SDS011;14402;48.178;11.566;2022-12-18T00:20:20;37.7;;;29.1;;
26824;SDS011;14402;48.178;11.566;2022-12-18T00:20:51;37.7;;;29.1;;
26824;SDS011;14402;48.178;11.566;2022-12-18T00:21:21;37.2;;;29.2;;
26824;SDS011;14402;48.178;11.566;2022-12-18T00:21:51;36.6;;;29.2;;
26824;SDS011;14402;48.178;11.566;2022-12-18T00:22:21;36.6;;;29.2;;
26824;SDS011;14402;48.178;11.566;2022-12-18T00:22:51;36.6;;;29.2;;
26824;SDS011;14402;48.178;11.566;2022-12-18T00:23:21;36.3;;;28.6;;
26824;SDS011;14402;48.178;11.566;2022-12-18T00:23:51;36.1;;;28.0;;
26824;SDS011;14402;48.178;11.566;2022-12-18T00:24:21;36.1;;;28.0;;
26824;SDS011;14402;48.178;11.566;2022-12-18T00:24:51;36.1;;;28.0;;
26824;SDS011;14402;48.178;11.566;2022-12-18T00:25:21;36.3;;;28.5;;
26824;SDS011;14402;48.178;11.566;2022-12-18T00:25:51;36.5;;;28.9;;
26824;SDS011;14402;48.178;11.566;2022-12-18T00:26:22;36.5;;;28.9;;
26824;SDS011;14402;48.178;11.566;2022-12-18T00:26:52;36.5;;;28.9;;
26824;SDS011;14402;48.178;11.566;2022-12-18T00:27:21;36.3;;;28.8;;
26824;SDS011;14402;48.178;11.566;2022-12-18T00:27:52;36.1;;;28.7;;
26824;SDS011;14402;48.178;11.566;2022-12-18T00:28:22;36.1;;;28.7;;
26824;SDS011;14402;48.178;11.566;2022-12-18T00:28:52;36.1;;;28.7;;
26824;SDS011;14402;48.178;11.566;2022-12-18T00:29:22;36.9;;;29.2;;
26824;SDS011;14402;48.178;11.566;2022-12-18T00:29:52;37.8;;;29.6;;
26824;SDS011;14402;48.178;11.566;2022-12-18T00:30:22;37.8;;;29.6;;
26824;SDS011;14402;48.178;11.566;2022-12-18T00:30:59;37.8;;;29.6;;
26824;SDS011;14402;48.178;11.566;2022-12-18T00:31:23;38.0;;;29.7;;
26824;SDS011;14402;48.178;11.566;2022-12-18T00:31:52;38.2;;;29.7;;
26824;SDS011;14402;48.178;11.566;2022-12-18T00:32:22;38.2;;;29.7;;
26824;SDS011;14402;48.178;11.566;2022-12-18T00:32:52;38.2;;;29.7;;
26824;SDS011;14402;48.178;11.566;2022-12-18T00:33:23;37.8;;;29.2;;
26824;SDS011;14402;48.178;11.566;2022-12-18T00:33:53;37.4;;;28.6;;
26824;SDS011;14402;48.178;11.566;2022-12-18T00:34:23;37.4;;;28.6;;
26824;SDS011;14402;48.178;11.566;2022-12-18T00:34:53;37.4;;;28.6;;
26824;SDS011;14402;48.178;11.566;2022-12-18T00:35:23;37.1;;;28.5;;
26824;SDS011;14402;48.178;11.566;2022-12-18T00:35:53;36.7;;;28.5;;
26824;SDS011;14402;48.178;11.566;2022-12-18T00:36:24;36.7;;;28.5;;
26824;SDS011;14402;48.178;11.566;2022-12-18T00:36:53;36.7;;;28.5;;
26824;SDS011;14402;48.178;11.566;2022-12-18T00:37:23;36.2;;;28.0;;
26824;SDS011;14402;48.178;11.566;2022-12-18T00:37:53;35.6;;;27.6;;
26824;SDS011;14402;48.178;11.566;2022-12-18T00:38:23;35.6;;;27.6;;
26824;SDS011;14402;48.178;11.566;2022-12-18T00:38:54;35.6;;;27.6;;
26824;SDS011;14402;48.178;11.566;2022-12-18T00:39:24;36.2;;;28.0;;
26824;SDS011;14402;48.178;11.566;2022-12-18T00:39:54;36.9;;;28.5;;
26824;SDS011;14402;48.178;11.566;2022-12-18T00:40:24;36.9;;;28.5;;
26824;SDS011;14402;48.178;11.566;2022-12-18T00:40:54;36.9;;;28.5;;
26824;SDS011;14402;48.178;11.566;2022-12-18T00:41:24;36.7;;;28.2;;
26824;SDS011;14402;48.178;11.566;2022-12-18T00:44:54;36.1;;;28.0;;
26824;SDS011;14402;48.178;11.566;2022-12-18T00:45:25;37.1;;;28.5;;
26824;SDS011;14402;48.178;11.566;2022-12-18T00:45:55;38.1;;;29.0;;
26824;SDS011;14402;48.178;11.566;2022-12-18T00:46:25;38.1;;;29.0;;
26824;SDS011;14402;48.178;11.566;2022-12-18T00:46:55;38.1;;;29.0;;
26824;SDS011;14402;48.178;11.566;2022-12-18T00:47:25;37.2;;;28.3;;
26824;SDS011;14402;48.178;11.566;2022-12-18T00:47:55;36.2;;;27.6;;
26824;SDS011;14402;48.178;11.566;2022-12-18T00:48:25;36.2;;;27.6;;
26824;SDS011;14402;48.178;11.566;2022-12-18T00:48:55;36.2;;;27.6;;
26824;SDS011;14402;48.178;11.566;2022-12-18T00:49:25;35.3;;;27.2;;
26824;SDS011;14402;48.178;11.566;2022-12-18T00:49:55;34.4;;;26.7;;
26824;SDS011;14402;48.178;11.566;2022-12-18T00:50:25;34.4;;;26.7;;
26824;SDS011;14402;48.178;11.566;2022-12-18T00:50:56;34.4;;;26.7;;
26824;SDS011;14402;48.178;11.566;2022-12-18T00:51:26;34.4;;;26.6;;
26824;SDS011;14402;48.178;11.566;2022-12-18T00:51:56;34.4;;;26.5;;
26824;SDS011;14402;48.178;11.566;2022-12-18T00:52:26;34.4;;;26.5;;
26824;SDS011;14402;48.178;11.566;2022-12-18T00:52:56;34.4;;;26.5;;
26824;SDS011;14402;48.178;11.566;2022-12-18T00:53:26;35.2;;;26.9;;
26824;SDS011;14402;48.178;11.566;2022-12-18T00:53:56;35.9;;;27.3;;
26824;SDS011;14402;48.178;11.566;2022-12-18T00:54:26;35.9;;;27.3;;
26824;SDS011;14402;48.178;11.566;2022-12-18T00:54:56;35.9;;;27.3;;
26824;SDS011;14402;48.178;11.566;2022-12-18T00:55:26;36.8;;;27.5;;
26824;SDS011;14402;48.178;11.566;2022-12-18T00:55:56;37.6;;;27.6;;
26824;SDS011;14402;48.178;11.566;2022-12-18T00:56:26;37.6;;;27.6;;
26824;SDS011;14402;48.178;11.566;2022-12-18T00:56:57;37.6;;;27.6;;
26824;SDS011;14402;48.178;11.566;2022-12-18T00:57:27;35.2;;;26.7;;
26824;SDS011;14402;48.178;11.566;2022-12-18T00:57:57;32.9;;;25.8;;
26824;SDS011;14402;48.178;11.566;2022-12-18T00:58:27;32.9;;;25.8;;
26824;SDS011;14402;48.178;11.566;2022-12-18T00:58:57;32.9;;;25.8;;
26824;SDS011;14402;48.178;11.566;2022-12-18T00:59:27;32.8;;;25.8;;
26824;SDS011;14402;48.178;11.566;2022-12-18T00:59:57;32.8;;;25.7;;
26824;SDS011;14402;48.178;11.566;2022-12-18T01:00:27;32.8;;;25.7;;
26824;SDS011;14402;48.178;11.566;2022-12-18T01:00:57;32.8;;;25.7;;
26824;SDS011;14402;48.178;11.566;2022-12-18T01:01:27;32.1;;;25.2;;
26824;SDS011;14402;48.178;11.566;2022-12-18T01:01:57;31.4;;;24.6;;
26824;SDS011;14402;48.178;11.566;2022-12-18T01:02:27;31.4;;;24.6;;
26824;SDS011;14402;48.178;11.566;2022-12-18T01:02:57;31.4;;;24.6;;
26824;SDS011;14402;48.178;11.566;2022-12-18T01:03:27;31.8;;;25.1;;
26824;SDS011;14402;48.178;11.566;2022-12-18T01:03:58;32.3;;;25.6;;
26824;SDS011;14402;48.178;11.566;2022-12-18T01:04:28;32.3;;;25.6;;
26824;SDS011;14402;48.178;11.566;2022-12-18T01:04:58;32.3;;;25.6;;
26824;SDS011;14402;48.178;11.566;2022-12-18T01:05:28;32.4;;;25.4;;
26824;SDS011;14402;48.178;11.566;2022-12-18T01:05:58;32.5;;;25.2;;
26824;SDS011;14402;48.178;11.566;2022-12-18T01:06:28;32.5;;;25.2;;
26824;SDS011;14402;48.178;11.566;2022-12-18T01:06:58;32.5;;;25.2;;
26824;SDS011;14402;48.178;11.566;2022-12-18T01:07:28;32.8;;;25.4;;
26824;SDS011;14402;48.178;11.566;2022-12-18T01:07:58;33.1;;;25.6;;
26824;SDS011;14402;48.178;11.566;2022-12-18T01:08:28;33.1;;;25.6;;
26824;SDS011;14402;48.178;11.566;2022-12-18T01:08:59;33.1;;;25.6;;
26824;SDS011;14402;48.178;11.566;2022-12-18T01:09:29;32.9;;;25.9;;
26824;SDS011;14402;48.178;11.566;2022-12-18T01:09:59;32.8;;;26.2;;
26824;SDS011;14402;48.178;11.566;2022-12-18T01:10:29;32.8;;;26.2;;
26824;SDS011;14402;48.178;11.566;2022-12-18T01:11:00;32.8;;;26.2;;
26824;SDS011;14402;48.178;11.566;2022-12-18T01:11:29;32.3;;;25.2;;
26824;SDS011;14402;48.178;11.566;2022-12-18T01:11:59;31.8;;;24.2;;
26824;SDS011;14402;48.178;11.566;2022-12-18T01:12:29;31.8;;;24.2;;
26824;SDS011;14402;48.178;11.566;2022-12-18T01:12:59;31.8;;;24.2;;
26824;SDS011;14402;48.178;11.566;2022-12-18T01:13:29;32.4;;;25.1;;
26824;SDS011;14402;48.178;11.566;2022-12-18T01:13:59;33.1;;;26.0;;
26824;SDS011;14402;48.178;11.566;2022-12-18T01:14:29;33.1;;;26.0;;
26824;SDS011;14402;48.178;11.566;2022-12-18T01:14:59;33.1;;;26.0;;
26824;SDS011;14402;48.178;11.566;2022-12-18T01:15:30;33.0;;;25.7;;
26824;SDS011;14402;48.178;11.566;2022-12-18T01:16:00;32.9;;;25.4;;
26824;SDS011;14402;48.178;11.566;2022-12-18T01:16:30;32.9;;;25.4;;
26824;SDS011;14402;48.178;11.566;2022-12-18T01:17:00;32.9;;;25.4;;
26824;SDS011;14402;48.178;11.566;2022-12-18T01:17:31;31.6;;;24.7;;
26824;SDS011;14402;48.178;11.566;2022-12-18T01:18:00;30.3;;;24.0;;
26824;SDS011;14402;48.178;11.566;2022-12-18T01:18:30;30.3;;;24.0;;
26824;SDS011;14402;48.178;11.566;2022-12-18T01:19:00;30.3;;;24.0;;
26824;SDS011;14402;48.178;11.566;2022-12-18T01:19:30;31.8;;;24.6;;
26824;SDS011;14402;48.178;11.566;2022-12-18T01:20:00;33.2;;;25.3;;
26824;SDS011;14402;48.178;11.566;2022-12-18T01:20:30;33.2;;;25.3;;
26824;SDS011;14402;48.178;11.566;2022-12-18T01:21:02;33.2;;;25.3;;
26824;SDS011;14402;48.178;11.566;2022-12-18T01:21:31;32.4;;;25.1;;
26824;SDS011;14402;48.178;11.566;2022-12-18T01:22:01;31.6;;;25.0;;
26824;SDS011;14402;48.178;11.566;2022-12-18T01:22:31;31.6;;;25.0;;
26824;SDS011;14402;48.178;11.566;2022-12-18T01:23:01;31.6;;;25.0;;
26824;SDS011;14402;48.178;11.566;2022-12-18T01:23:31;31.8;;;25.0;;
26824;SDS011;14402;48.178;11.566;2022-12-18T01:24:01;32.0;;;25.0;;
26824;SDS011;14402;48.178;11.566;2022-12-18T01:24:31;32.0;;;25.0;;
26824;SDS011;14402;48.178;11.566;2022-12-18T01:25:02;32.0;;;25.0;;
26824;SDS011;14402;48.178;11.566;2022-12-18T01:25:32;31.7;;;25.2;;
26824;SDS011;14402;48.178;11.566;2022-12-18T01:26:05;31.4;;;25.4;;
26824;SDS011;14402;48.178;11.566;2022-12-18T01:26:31;31.4;;;25.4;;
26824;SDS011;14402;48.178;11.566;2022-12-18T01:27:02;31.4;;;25.4;;
26824;SDS011;14402;48.178;11.566;2022-12-18T01:27:32;31.4;;;25.3;;
26824;SDS011;14402;48.178;11.566;2022-12-18T01:28:02;31.4;;;25.3;;
26824;SDS011;14402;48.178;11.566;2022-12-18T01:28:32;31.4;;;25.3;;
26824;SDS011;14402;48.178;11.566;2022-12-18T01:29:02;31.4;;;25.3;;
26824;SDS011;14402;48.178;11.566;2022-12-18T01:29:32;31.3;;;25.0;;
26824;SDS011;14402;48.178;11.566;2022-12-18T01:30:02;31.3;;;24.8;;
26824;SDS011;14402;48.178;11.566;2022-12-18T01:30:32;31.3;;;24.8;;
26824;SDS011;14402;48.178;11.566;2022-12-18T01:31:10;31.3;;;24.8;;
26824;SDS011;14402;48.178;11.566;2022-12-18T01:31:33;32.5;;;25.4;;
26824;SDS011;14402;48.178;11.566;2022-12-18T01:32:02;33.7;;;26.0;;
26824;SDS011;14402;48.178;11.566;2022-12-18T01:32:33;33.7;;;26.0;;
26824;SDS011;14402;48.178;11.566;2022-12-18T01:33:03;33.7;;;26.0;;
26824;SDS011;14402;48.178;11.566;2022-12-18T01:33:33;33.8;;;26.0;;
26824;SDS011;14402;48.178;11.566;2022-12-18T01:34:03;33.9;;;26.0;;
26824;SDS011;14402;48.178;11.566;2022-12-18T01:34:33;33.9;;;26.0;;
26824;SDS011;14402;48.178;11.566;2022-12-18T01:35:03;33.9;;;26.0;;
26824;SDS011;14402;48.178;11.566;2022-12-18T01:35:33;33.3;;;25.8;;
26824;SDS011;14402;48.178;11.566;2022-12-18T01:36:03;32.7;;;25.5;;
26824;SDS011;14402;48.178;11.566;2022-12-18T01:36:34;32.7;;;25.5;;
26824;SDS011;14402;48.178;11.566;2022-12-18T01:37:04;32.7;;;25.5;;
26824;SDS011;14402;48.178;11.566;2022-12-18T01:37:33;33.0;;;25.9;;
26824;SDS011;14402;48.178;11.566;2022-12-18T01:38:03;33.3;;;26.3;;
26824;SDS011;14402;48.178;11.566;2022-12-18T01:38:33;33.3;;;26.3;;
26824;SDS011;14402;48.178;11.566;2022-12-18T01:39:04;33.3;;;26.3;;
26824;SDS011;14402;48.178;11.566;2022-12-18T01:39:34;34.2;;;26.4;;
26824;SDS011;14402;48.178;11.566;2022-12-18T01:40:04;35.1;;;26.5;;
26824;SDS011;14402;48.178;11.566;2022-12-18T01:40:34;35.1;;;26.5;;
26824;SDS011;14402;48.178;11.566;2022-12-18T01:41:04;35.1;;;26.5;;
26824;SDS011;14402;48.178;11.566;2022-12-18T01:41:34;34.7;;;26.3;;
26824;SDS011;14402;48.178;11.566;2022-12-18T01:42:05;34.2;;;26.1;;
26824;SDS011;14402;48.178;11.566;2022-12-18T01:42:34;34.2;;;26.1;;
26824;SDS011;14402;48.178;11.566;2022-12-18T01:43:04;34.2;;;26.1;;
26824;SDS011;14402;48.178;11.566;2022-12-18T01:43:51;33.9;;;26.2;;
26824;SDS011;14402;48.178;11.566;2022-12-18T01:44:46;33.6;;;26.3;;
26824;SDS011;14402;48.178;11.566;2022-12-18T01:44:51;33.6;;;26.3;;
26824;SDS011;14402;48.178;11.566;2022-12-18T01:45:06;33.6;;;26.3;;
26824;SDS011;14402;48.178;11.566;2022-12-18T01:45:35;33.4;;;26.5;;
26824;SDS011;14402;48.178;11.566;2022-12-18T01:46:05;33.3;;;26.7;;
26824;SDS011;14402;48.178;11.566;2022-12-18T01:46:35;33.3;;;26.7;;
26824;SDS011;14402;48.178;11.566;2022-12-18T01:47:05;33.3;;;26.7;;
26824;SDS011;14402;48.178;11.566;2022-12-18T01:47:36;33.9;;;26.9;;
26824;SDS011;14402;48.178;11.566;2022-12-18T01:48:06;34.6;;;27.1;;
26824;SDS011;14402;48.178;11.566;2022-12-18T01:48:35;34.6;;;27.1;;
26824;SDS011;14402;48.178;11.566;2022-12-18T01:49:05;34.6;;;27.1;;
26824;SDS011;14402;48.178;11.566;2022-12-18T01:49:35;35.4;;;27.6;;
26824;SDS011;14402;48.178;11.566;2022-12-18T01:50:07;36.3;;;28.1;;
26824;SDS011;14402;48.178;11.566;2022-12-18T01:50:36;36.3;;;28.1;;
26824;SDS011;14402;48.178;11.566;2022-12-18T01:51:06;36.3;;;28.1;;
26824;SDS011;14402;48.178;11.566;2022-12-18T01:51:36;35.9;;;28.1;;
26824;SDS011;14402;48.178;11.566;2022-12-18T01:52:06;35.6;;;28.1;;
26824;SDS011;14402;48.178;11.566;2022-12-18T01:52:36;35.6;;;28.1;;
26824;SDS011;14402;48.178;11.566;2022-12-18T01:53:07;35.6;;;28.1;;
26824;SDS011;14402;48.178;11.566;2022-12-18T01:53:36;36.1;;;27.9;;
26824;SDS011;14402;48.178;11.566;2022-12-18T01:54:06;36.6;;;27.7;;
26824;SDS011;14402;48.178;11.566;2022-12-18T01:54:36;36.6;;;27.7;;
26824;SDS011;14402;48.178;11.566;2022-12-18T01:55:06;36.6;;;27.7;;
26824;SDS011;14402;48.178;11.566;2022-12-18T01:55:37;35.6;;;27.5;;
26824;SDS011;14402;48.178;11.566;2022-12-18T01:56:07;34.6;;;27.2;;
26824;SDS011;14402;48.178;11.566;2022-12-18T01:56:36;34.6;;;27.2;;
26824;SDS011;14402;48.178;11.566;2022-12-18T01:57:07;34.6;;;27.2;;
26824;SDS011;14402;48.178;11.566;2022-12-18T01:57:37;35.2;;;27.0;;
26824;SDS011;14402;48.178;11.566;2022-12-18T01:58:07;35.8;;;26.9;;
26824;SDS011;14402;48.178;11.566;2022-12-18T01:58:39;35.8;;;26.9;;
26824;SDS011;14402;48.178;11.566;2022-12-18T01:59:07;35.0;;;27.0;;
26824;SDS011;14402;48.178;11.566;2022-12-18T01:59:37;34.3;;;27.1;;
26824;SDS011;14402;48.178;11.566;2022-12-18T02:00:08;34.3;;;27.1;;
26824;SDS011;14402;48.178;11.566;2022-12-18T02:00:37;34.3;;;27.1;;
26824;SDS011;14402;48.178;11.566;2022-12-18T02:01:07;33.9;;;27.0;;
26824;SDS011;14402;48.178;11.566;2022-12-18T02:01:37;33.5;;;26.9;;
26824;SDS011;14402;48.178;11.566;2022-12-18T02:02:07;33.5;;;26.9;;
26824;SDS011;14402;48.178;11.566;2022-12-18T02:02:38;33.5;;;26.9;;
26824;SDS011;14402;48.178;11.566;2022-12-18T02:03:07;34.8;;;27.6;;
26824;SDS011;14402;48.178;11.566;2022-12-18T02:03:40;36.0;;;28.4;;
26824;SDS011;14402;48.178;11.566;2022-12-18T02:04:16;36.0;;;28.4;;
26824;SDS011;14402;48.178;11.566;2022-12-18T02:04:38;36.0;;;28.4;;
26824;SDS011;14402;48.178;11.566;2022-12-18T02:05:08;35.7;;;28.0;;
26824;SDS011;14402;48.178;11.566;2022-12-18T02:05:40;35.3;;;27.5;;
26824;SDS011;14402;48.178;11.566;2022-12-18T02:06:09;35.3;;;27.5;;
26824;SDS011;14402;48.178;11.566;2022-12-18T02:06:39;35.3;;;27.5;;
26824;SDS011;14402;48.178;11.566;2022-12-18T02:07:10;34.8;;;27.4;;
26824;SDS011;14402;48.178;11.566;2022-12-18T02:07:42;34.4;;;27.3;;
26824;SDS011;14402;48.178;11.566;2022-12-18T02:08:09;34.4;;;27.3;;
26824;SDS011;14402;48.178;11.566;2022-12-18T02:08:40;34.4;;;27.3;;
26824;SDS011;14402;48.178;11.566;2022-12-18T02:09:09;34.3;;;27.3;;
26824;SDS011;14402;48.178;11.566;2022-12-18T02:09:40;34.2;;;27.3;;
26824;SDS011;14402;48.178;11.566;2022-12-18T02:10:10;34.2;;;27.3;;
26824;SDS011;14402;48.178;11.566;2022-12-18T02:10:41;34.2;;;27.3;;
26824;SDS011;14402;48.178;11.566;2022-12-18T02:11:10;35.3;;;27.6;;
26824;SDS011;14402;48.178;11.566;2022-12-18T02:11:40;36.4;;;28.0;;
26824;SDS011;14402;48.178;11.566;2022-12-18T02:12:10;36.4;;;28.0;;
26824;SDS011;14402;48.178;11.566;2022-12-18T02:12:42;36.4;;;28.0;;
26824;SDS011;14402;48.178;11.566;2022-12-18T02:13:11;36.5;;;28.2;;
26824;SDS011;14402;48.178;11.566;2022-12-18T02:13:41;36.6;;;28.4;;
26824;SDS011;14402;48.178;11.566;2022-12-18T02:14:13;36.6;;;28.4;;
26824;SDS011;14402;48.178;11.566;2022-12-18T02:14:40;36.6;;;28.4;;
26824;SDS011;14402;48.178;11.566;2022-12-18T02:15:11;35.3;;;27.8;;
26824;SDS011;14402;48.178;11.566;2022-12-18T02:15:41;34.0;;;27.3;;
26824;SDS011;14402;48.178;11.566;2022-12-18T02:16:12;34.0;;;27.3;;
26824;SDS011;14402;48.178;11.566;2022-12-18T02:16:42;34.0;;;27.3;;
26824;SDS011;14402;48.178;11.566;2022-12-18T02:17:12;34.8;;;27.8;;
26824;SDS011;14402;48.178;11.566;2022-12-18T02:17:41;35.6;;;28.2;;
26824;SDS011;14402;48.178;11.566;2022-12-18T02:18:11;35.6;;;28.2;;
26824;SDS011;14402;48.178;11.566;2022-12-18T02:18:41;35.6;;;28.2;;
26824;SDS011;14402;48.178;11.566;2022-12-18T02:19:14;35.3;;;28.1;;
26824;SDS011;14402;48.178;11.566;2022-12-18T02:19:44;35.1;;;28.0;;
26824;SDS011;14402;48.178;11.566;2022-12-18T02:20:12;35.1;;;28.0;;
26824;SDS011;14402;48.178;11.566;2022-12-18T02:20:42;35.1;;;28.0;;
26824;SDS011;14402;48.178;11.566;2022-12-18T02:21:12;35.3;;;28.0;;
26824;SDS011;14402;48.178;11.566;2022-12-18T02:21:44;35.5;;;28.1;;
26824;SDS011;14402;48.178;11.566;2022-12-18T02:22:13;35.5;;;28.1;;
26824;SDS011;14402;48.178;11.566;2022-12-18T02:22:44;35.5;;;28.1;;
26824;SDS011;14402;48.178;11.566;2022-12-18T02:23:12;35.8;;;28.6;;
26824;SDS011;14402;48.178;11.566;2022-12-18T02:23:46;36.0;;;29.1;;
26824;SDS011;14402;48.178;11.566;2022-12-18T02:24:15;36.0;;;29.1;;
26824;SDS011;14402;48.178;11.566;2022-12-18T02:24:42;36.0;;;29.1;;
26824;SDS011;14402;48.178;11.566;2022-12-18T02:25:13;36.5;;;29.0;;
26824;SDS011;14402;48.178;11.566;2022-12-18T02:26:15;36.9;;;28.8;;
26824;SDS011;14402;48.178;11.566;2022-12-18T02:26:18;36.9;;;28.8;;
26824;SDS011;14402;48.178;11.566;2022-12-18T02:26:43;36.9;;;28.8;;
26824;SDS011;14402;48.178;11.566;2022-12-18T02:27:12;37.2;;;28.8;;
26824;SDS011;14402;48.178;11.566;2022-12-18T02:27:42;37.6;;;28.9;;
26824;SDS011;14402;48.178;11.566;2022-12-18T02:28:13;37.6;;;28.9;;
26824;SDS011;14402;48.178;11.566;2022-12-18T02:28:42;37.6;;;28.9;;
26824;SDS011;14402;48.178;11.566;2022-12-18T02:29:13;37.9;;;29.4;;
26824;SDS011;14402;48.178;11.566;2022-12-18T02:29:44;38.2;;;29.9;;
26824;SDS011;14402;48.178;11.566;2022-12-18T02:30:12;38.2;;;29.9;;
26824;SDS011;14402;48.178;11.566;2022-12-18T02:30:42;38.2;;;29.9;;
26824;SDS011;14402;48.178;11.566;2022-12-18T02:31:14;37.8;;;30.0;;
26824;SDS011;14402;48.178;11.566;2022-12-18T02:31:43;37.5;;;30.0;;
26824;SDS011;14402;48.178;11.566;2022-12-18T02:32:13;37.5;;;30.0;;
26824;SDS011;14402;48.178;11.566;2022-12-18T02:32:43;37.5;;;30.0;;
26824;SDS011;14402;48.178;11.566;2022-12-18T02:33:13;37.5;;;30.0;;
26824;SDS011;14402;48.178;11.566;2022-12-18T02:33:43;37.6;;;30.1;;
26824;SDS011;14402;48.178;11.566;2022-12-18T02:34:13;37.6;;;30.1;;
26824;SDS011;14402;48.178;11.566;2022-12-18T02:34:43;37.6;;;30.1;;
26824;SDS011;14402;48.178;11.566;2022-12-18T02:35:16;37.2;;;30.3;;
26824;SDS011;14402;48.178;11.566;2022-12-18T02:35:43;36.9;;;30.5;;
26824;SDS011;14402;48.178;11.566;2022-12-18T02:36:13;36.9;;;30.5;;
26824;SDS011;14402;48.178;11.566;2022-12-18T02:36:43;36.9;;;30.5;;
26824;SDS011;14402;48.178;11.566;2022-12-18T02:37:14;37.2;;;30.4;;
26824;SDS011;14402;48.178;11.566;2022-12-18T02:37:43;37.5;;;30.3;;
26824;SDS011;14402;48.178;11.566;2022-12-18T02:38:13;37.5;;;30.3;;
26824;SDS011;14402;48.178;11.566;2022-12-18T02:38:44;37.5;;;30.3;;
26824;SDS011;14402;48.178;11.566;2022-12-18T02:39:14;38.0;;;30.1;;
26824;SDS011;14402;48.178;11.566;2022-12-18T02:39:44;38.5;;;30.0;;
26824;SDS011;14402;48.178;11.566;2022-12-18T02:40:14;38.5;;;30.0;;
26824;SDS011;14402;48.178;11.566;2022-12-18T02:40:44;38.5;;;30.0;;
26824;SDS011;14402;48.178;11.566;2022-12-18T02:41:14;38.6;;;30.2;;
26824;SDS011;14402;48.178;11.566;2022-12-18T02:41:44;38.7;;;30.5;;
26824;SDS011;14402;48.178;11.566;2022-12-18T02:42:14;38.7;;;30.5;;
26824;SDS011;14402;48.178;11.566;2022-12-18T02:42:44;38.7;;;30.5;;
26824;SDS011;14402;48.178;11.566;2022-12-18T02:43:15;38.7;;;30.3;;
26824;SDS011;14402;48.178;11.566;2022-12-18T02:43:46;38.7;;;30.1;;
26824;SDS011;14402;48.178;11.566;2022-12-18T02:44:15;38.7;;;30.1;;
26824;SDS011;14402;48.178;11.566;2022-12-18T02:44:45;38.7;;;30.1;;
26824;SDS011;14402;48.178;11.566;2022-12-18T02:45:15;38.2;;;30.1;;
26824;SDS011;14402;48.178;11.566;2022-12-18T02:45:46;37.8;;;30.1;;
26824;SDS011;14402;48.178;11.566;2022-12-18T02:46:23;37.8;;;30.1;;
26824;SDS011;14402;48.178;11.566;2022-12-18T02:46:46;37.8;;;30.1;;
26824;SDS011;14402;48.178;11.566;2022-12-18T02:47:16;38.2;;;30.0;;
26824;SDS011;14402;48.178;11.566;2022-12-18T02:47:46;38.5;;;30.0;;
26824;SDS011;14402;48.178;11.566;2022-12-18T02:48:16;38.5;;;30.0;;
26824;SDS011;14402;48.178;11.566;2022-12-18T02:48:45;38.5;;;30.0;;
26824;SDS011;14402;48.178;11.566;2022-12-18T02:49:20;38.8;;;30.5;;
26824;SDS011;14402;48.178;11.566;2022-12-18T02:49:48;39.2;;;31.1;;
26824;SDS011;14402;48.178;11.566;2022-12-18T02:50:17;39.2;;;31.1;;
26824;SDS011;14402;48.178;11.566;2022-12-18T02:50:48;39.2;;;31.1;;
26824;SDS011;14402;48.178;11.566;2022-12-18T02:51:17;38.7;;;30.5;;
26824;SDS011;14402;48.178;11.566;2022-12-18T02:51:48;38.1;;;29.9;;
26824;SDS011;14402;48.178;11.566;2022-12-18T02:52:17;38.1;;;29.9;;
26824;SDS011;14402;48.178;11.566;2022-12-18T02:52:49;38.1;;;29.9;;
26824;SDS011;14402;48.178;11.566;2022-12-18T02:53:17;39.1;;;30.5;;
26824;SDS011;14402;48.178;11.566;2022-12-18T02:53:48;40.1;;;31.0;;
26824;SDS011;14402;48.178;11.566;2022-12-18T02:54:18;40.1;;;31.0;;
26824;SDS011;14402;48.178;11.566;2022-12-18T02:54:49;40.1;;;31.0;;
26824;SDS011;14402;48.178;11.566;2022-12-18T02:55:19;39.2;;;30.6;;
26824;SDS011;14402;48.178;11.566;2022-12-18T02:55:49;38.2;;;30.2;;
26824;SDS011;14402;48.178;11.566;2022-12-18T02:56:18;38.2;;;30.2;;
26824;SDS011;14402;48.178;11.566;2022-12-18T02:56:48;38.2;;;30.2;;
26824;SDS011;14402;48.178;11.566;2022-12-18T02:57:18;39.0;;;30.4;;
26824;SDS011;14402;48.178;11.566;2022-12-18T02:57:48;39.7;;;30.6;;
26824;SDS011;14402;48.178;11.566;2022-12-18T02:58:18;39.7;;;30.6;;
26824;SDS011;14402;48.178;11.566;2022-12-18T02:58:48;39.7;;;30.6;;
26824;SDS011;14402;48.178;11.566;2022-12-18T02:59:17;39.1;;;30.7;;
26824;SDS011;14402;48.178;11.566;2022-12-18T02:59:49;38.4;;;30.7;;
26824;SDS011;14402;48.178;11.566;2022-12-18T03:00:18;38.4;;;30.7;;
26824;SDS011;14402;48.178;11.566;2022-12-18T03:00:48;38.4;;;30.7;;
26824;SDS011;14402;48.178;11.566;2022-12-18T03:01:19;39.1;;;30.9;;